sensor_id;sensor_type;location;lat;lon;timestamp;temperature;humidity
75153;HTU21D;63734;45.218;36.708;2023-04-03T00:00:29;9.96;105.36
75153;HTU21D;63734;45.218;36.708;2023-04-03T00:02:57;9.95;105.35
75153;HTU21D;63734;45.218;36.708;2023-04-03T00:05:23;9.93;105.40
75153;HTU21D;63734;45.218;36.708;2023-04-03T00:07:49;9.92;105.45
75153;HTU21D;63734;45.218;36.708;2023-04-03T00:10:15;9.92;105.41
75153;HTU21D;63734;45.218;36.708;2023-04-03T00:12:42;9.92;105.43
75153;HTU21D;63734;45.218;36.708;2023-04-03T00:15:08;9.96;105.72
75153;HTU21D;63734;45.218;36.708;2023-04-03T00:17:34;9.97;105.75
75153;HTU21D;63734;45.218;36.708;2023-04-03T00:20:01;9.98;105.84
75153;HTU21D;63734;45.218;36.708;2023-04-03T00:22:27;10.00;105.85
75153;HTU21D;63734;45.218;36.708;2023-04-03T00:24:54;10.01;105.85
75153;HTU21D;63734;45.218;36.708;2023-04-03T00:27:20;10.01;105.89
75153;HTU21D;63734;45.218;36.708;2023-04-03T00:29:47;10.01;105.92
75153;HTU21D;63734;45.218;36.708;2023-04-03T00:32:13;10.01;105.84
75153;HTU21D;63734;45.218;36.708;2023-04-03T00:34:39;10.00;105.86
75153;HTU21D;63734;45.218;36.708;2023-04-03T00:37:05;10.00;105.79
75153;HTU21D;63734;45.218;36.708;2023-04-03T00:39:31;9.99;105.70
75153;HTU21D;63734;45.218;36.708;2023-04-03T00:41:57;9.98;105.61
75153;HTU21D;63734;45.218;36.708;2023-04-03T00:46:59;9.96;105.49
75153;HTU21D;63734;45.218;36.708;2023-04-03T00:49:26;9.96;105.47
75153;HTU21D;63734;45.218;36.708;2023-04-03T00:51:53;9.96;105.48
75153;HTU21D;63734;45.218;36.708;2023-04-03T00:54:20;9.97;105.46
75153;HTU21D;63734;45.218;36.708;2023-04-03T01:00:43;9.97;105.31
75153;HTU21D;63734;45.218;36.708;2023-04-03T01:03:11;9.98;105.21
75153;HTU21D;63734;45.218;36.708;2023-04-03T01:05:39;9.96;105.13
75153;HTU21D;63734;45.218;36.708;2023-04-03T01:08:35;9.95;105.21
75153;HTU21D;63734;45.218;36.708;2023-04-03T01:11:01;9.95;105.29
75153;HTU21D;63734;45.218;36.708;2023-04-03T01:13:30;9.95;105.29
75153;HTU21D;63734;45.218;36.708;2023-04-03T01:15:57;9.93;105.19
75153;HTU21D;63734;45.218;36.708;2023-04-03T01:18:26;9.93;105.11
75153;HTU21D;63734;45.218;36.708;2023-04-03T01:26:00;9.92;104.85
75153;HTU21D;63734;45.218;36.708;2023-04-03T01:28:34;9.93;104.75
75153;HTU21D;63734;45.218;36.708;2023-04-03T01:33:47;9.89;104.60
75153;HTU21D;63734;45.218;36.708;2023-04-03T01:36:44;9.89;104.50
75153;HTU21D;63734;45.218;36.708;2023-04-03T01:39:10;9.88;104.40
75153;HTU21D;63734;45.218;36.708;2023-04-03T01:41:36;9.84;104.28
75153;HTU21D;63734;45.218;36.708;2023-04-03T01:44:11;9.81;104.24
75153;HTU21D;63734;45.218;36.708;2023-04-03T01:46:37;9.82;104.19
75153;HTU21D;63734;45.218;36.708;2023-04-03T01:49:03;9.80;104.14
75153;HTU21D;63734;45.218;36.708;2023-04-03T01:51:30;9.79;104.12
75153;HTU21D;63734;45.218;36.708;2023-04-03T01:53:56;9.77;104.07
75153;HTU21D;63734;45.218;36.708;2023-04-03T01:56:22;9.75;103.97
75153;HTU21D;63734;45.218;36.708;2023-04-03T01:58:49;9.71;103.95
75153;HTU21D;63734;45.218;36.708;2023-04-03T02:01:16;9.68;103.86
75153;HTU21D;63734;45.218;36.708;2023-04-03T02:03:42;9.67;103.86
75153;HTU21D;63734;45.218;36.708;2023-04-03T02:06:08;9.65;103.80
75153;HTU21D;63734;45.218;36.708;2023-04-03T02:08:34;9.63;103.80
75153;HTU21D;63734;45.218;36.708;2023-04-03T02:11:00;9.62;103.78
75153;HTU21D;63734;45.218;36.708;2023-04-03T02:13:59;9.61;103.72
75153;HTU21D;63734;45.218;36.708;2023-04-03T02:16:25;9.60;103.76
75153;HTU21D;63734;45.218;36.708;2023-04-03T02:18:51;9.59;103.68
75153;HTU21D;63734;45.218;36.708;2023-04-03T02:21:17;9.60;103.61
75153;HTU21D;63734;45.218;36.708;2023-04-03T02:23:43;9.56;103.56
75153;HTU21D;63734;45.218;36.708;2023-04-03T02:26:14;9.55;103.53
75153;HTU21D;63734;45.218;36.708;2023-04-03T02:28:40;9.52;103.44
75153;HTU21D;63734;45.218;36.708;2023-04-03T02:31:09;9.51;103.43
75153;HTU21D;63734;45.218;36.708;2023-04-03T02:33:37;9.51;103.38
75153;HTU21D;63734;45.218;36.708;2023-04-03T02:36:07;9.51;103.37
75153;HTU21D;63734;45.218;36.708;2023-04-03T02:38:34;9.50;103.33
75153;HTU21D;63734;45.218;36.708;2023-04-03T02:41:10;9.50;103.33
75153;HTU21D;63734;45.218;36.708;2023-04-03T02:43:37;9.49;103.21
75153;HTU21D;63734;45.218;36.708;2023-04-03T02:46:04;9.48;103.21
75153;HTU21D;63734;45.218;36.708;2023-04-03T02:48:30;9.48;103.16
75153;HTU21D;63734;45.218;36.708;2023-04-03T02:50:57;9.46;103.16
75153;HTU21D;63734;45.218;36.708;2023-04-03T02:53:23;9.44;103.11
75153;HTU21D;63734;45.218;36.708;2023-04-03T02:55:50;9.42;103.09
75153;HTU21D;63734;45.218;36.708;2023-04-03T03:01:22;9.37;102.99
75153;HTU21D;63734;45.218;36.708;2023-04-03T03:03:48;9.36;102.96
75153;HTU21D;63734;45.218;36.708;2023-04-03T03:06:16;9.34;102.91
75153;HTU21D;63734;45.218;36.708;2023-04-03T03:08:43;9.34;102.89
75153;HTU21D;63734;45.218;36.708;2023-04-03T03:11:09;9.33;102.83
75153;HTU21D;63734;45.218;36.708;2023-04-03T03:13:35;9.32;102.77
75153;HTU21D;63734;45.218;36.708;2023-04-03T03:16:02;9.30;102.76
75153;HTU21D;63734;45.218;36.708;2023-04-03T03:18:29;9.29;102.73
75153;HTU21D;63734;45.218;36.708;2023-04-03T03:20:56;9.27;102.72
75153;HTU21D;63734;45.218;36.708;2023-04-03T03:23:25;9.26;102.66
75153;HTU21D;63734;45.218;36.708;2023-04-03T03:26:03;9.26;102.63
75153;HTU21D;63734;45.218;36.708;2023-04-03T03:28:30;9.25;102.63
75153;HTU21D;63734;45.218;36.708;2023-04-03T03:30:57;9.24;102.60
75153;HTU21D;63734;45.218;36.708;2023-04-03T03:33:41;9.24;102.54
75153;HTU21D;63734;45.218;36.708;2023-04-03T03:36:07;9.23;102.48
75153;HTU21D;63734;45.218;36.708;2023-04-03T03:38:35;9.20;102.46
75153;HTU21D;63734;45.218;36.708;2023-04-03T03:41:01;9.20;102.46
75153;HTU21D;63734;45.218;36.708;2023-04-03T03:43:29;9.20;102.49
75153;HTU21D;63734;45.218;36.708;2023-04-03T03:45:55;9.21;102.45
75153;HTU21D;63734;45.218;36.708;2023-04-03T03:48:23;9.22;102.38
75153;HTU21D;63734;45.218;36.708;2023-04-03T03:50:50;9.23;102.32
75153;HTU21D;63734;45.218;36.708;2023-04-03T03:53:18;9.29;102.34
75153;HTU21D;63734;45.218;36.708;2023-04-03T03:55:45;9.32;102.19
75153;HTU21D;63734;45.218;36.708;2023-04-03T03:58:11;9.35;102.54
75153;HTU21D;63734;45.218;36.708;2023-04-03T04:00:37;9.37;102.69
75153;HTU21D;63734;45.218;36.708;2023-04-03T04:03:03;9.38;102.76
75153;HTU21D;63734;45.218;36.708;2023-04-03T04:05:31;9.51;102.71
75153;HTU21D;63734;45.218;36.708;2023-04-03T04:07:58;9.70;102.32
75153;HTU21D;63734;45.218;36.708;2023-04-03T04:13:39;10.45;100.73
75153;HTU21D;63734;45.218;36.708;2023-04-03T04:16:07;10.92;99.46
75153;HTU21D;63734;45.218;36.708;2023-04-03T04:18:34;11.11;98.41
75153;HTU21D;63734;45.218;36.708;2023-04-03T04:21:00;11.22;98.26
75153;HTU21D;63734;45.218;36.708;2023-04-03T04:23:26;11.39;98.36
75153;HTU21D;63734;45.218;36.708;2023-04-03T04:25:52;11.64;97.90
75153;HTU21D;63734;45.218;36.708;2023-04-03T04:28:19;11.88;97.32
75153;HTU21D;63734;45.218;36.708;2023-04-03T04:30:49;12.03;97.19
75153;HTU21D;63734;45.218;36.708;2023-04-03T04:33:17;12.26;96.92
75153;HTU21D;63734;45.218;36.708;2023-04-03T04:35:44;12.40;96.52
75153;HTU21D;63734;45.218;36.708;2023-04-03T04:38:12;12.56;96.05
75153;HTU21D;63734;45.218;36.708;2023-04-03T04:40:38;12.63;95.97
75153;HTU21D;63734;45.218;36.708;2023-04-03T04:43:05;12.78;95.71
75153;HTU21D;63734;45.218;36.708;2023-04-03T04:45:32;12.99;95.23
75153;HTU21D;63734;45.218;36.708;2023-04-03T04:47:58;13.17;94.30
75153;HTU21D;63734;45.218;36.708;2023-04-03T04:50:25;13.21;93.72
75153;HTU21D;63734;45.218;36.708;2023-04-03T04:52:52;13.30;93.79
75153;HTU21D;63734;45.218;36.708;2023-04-03T04:55:19;13.37;92.97
75153;HTU21D;63734;45.218;36.708;2023-04-03T04:57:46;13.43;92.57
75153;HTU21D;63734;45.218;36.708;2023-04-03T05:00:13;13.39;92.11
75153;HTU21D;63734;45.218;36.708;2023-04-03T05:02:39;13.50;91.98
75153;HTU21D;63734;45.218;36.708;2023-04-03T05:05:05;13.52;91.55
75153;HTU21D;63734;45.218;36.708;2023-04-03T05:07:33;13.65;90.82
75153;HTU21D;63734;45.218;36.708;2023-04-03T05:10:00;13.61;89.87
75153;HTU21D;63734;45.218;36.708;2023-04-03T05:12:27;13.59;89.83
75153;HTU21D;63734;45.218;36.708;2023-04-03T05:14:57;13.70;89.09
75153;HTU21D;63734;45.218;36.708;2023-04-03T05:17:25;13.68;88.64
75153;HTU21D;63734;45.218;36.708;2023-04-03T05:19:54;13.71;88.02
75153;HTU21D;63734;45.218;36.708;2023-04-03T05:22:22;13.77;87.64
75153;HTU21D;63734;45.218;36.708;2023-04-03T05:24:50;13.80;87.28
75153;HTU21D;63734;45.218;36.708;2023-04-03T05:27:17;13.83;86.79
75153;HTU21D;63734;45.218;36.708;2023-04-03T05:29:47;13.85;86.73
75153;HTU21D;63734;45.218;36.708;2023-04-03T05:32:18;14.05;86.74
75153;HTU21D;63734;45.218;36.708;2023-04-03T05:35:01;14.15;85.08
75153;HTU21D;63734;45.218;36.708;2023-04-03T05:37:27;14.20;85.66
75153;HTU21D;63734;45.218;36.708;2023-04-03T05:39:53;14.39;85.30
75153;HTU21D;63734;45.218;36.708;2023-04-03T05:45:40;14.64;84.32
75153;HTU21D;63734;45.218;36.708;2023-04-03T05:48:06;14.70;83.93
75153;HTU21D;63734;45.218;36.708;2023-04-03T05:50:32;14.83;83.33
75153;HTU21D;63734;45.218;36.708;2023-04-03T05:52:59;14.82;82.91
75153;HTU21D;63734;45.218;36.708;2023-04-03T05:55:27;14.85;82.77
75153;HTU21D;63734;45.218;36.708;2023-04-03T05:58:24;14.88;82.03
75153;HTU21D;63734;45.218;36.708;2023-04-03T06:01:05;14.91;81.98
75153;HTU21D;63734;45.218;36.708;2023-04-03T06:03:32;14.89;82.23
75153;HTU21D;63734;45.218;36.708;2023-04-03T06:05:58;15.11;82.04
75153;HTU21D;63734;45.218;36.708;2023-04-03T06:08:24;15.06;80.96
75153;HTU21D;63734;45.218;36.708;2023-04-03T06:10:50;14.99;80.68
75153;HTU21D;63734;45.218;36.708;2023-04-03T06:13:16;14.99;81.02
75153;HTU21D;63734;45.218;36.708;2023-04-03T06:15:42;15.08;80.48
75153;HTU21D;63734;45.218;36.708;2023-04-03T06:18:08;15.19;80.27
75153;HTU21D;63734;45.218;36.708;2023-04-03T06:20:34;15.09;79.58
75153;HTU21D;63734;45.218;36.708;2023-04-03T06:23:00;15.01;80.14
75153;HTU21D;63734;45.218;36.708;2023-04-03T06:25:27;15.13;80.27
75153;HTU21D;63734;45.218;36.708;2023-04-03T06:27:53;15.19;79.69
75153;HTU21D;63734;45.218;36.708;2023-04-03T06:30:21;15.18;79.25
75153;HTU21D;63734;45.218;36.708;2023-04-03T06:32:47;15.17;79.67
75153;HTU21D;63734;45.218;36.708;2023-04-03T06:35:13;15.21;79.11
75153;HTU21D;63734;45.218;36.708;2023-04-03T06:37:39;15.26;78.99
75153;HTU21D;63734;45.218;36.708;2023-04-03T06:40:05;15.25;78.75
75153;HTU21D;63734;45.218;36.708;2023-04-03T06:42:32;15.19;78.27
75153;HTU21D;63734;45.218;36.708;2023-04-03T06:45:06;15.12;78.85
75153;HTU21D;63734;45.218;36.708;2023-04-03T06:47:33;15.13;78.85
75153;HTU21D;63734;45.218;36.708;2023-04-03T06:49:59;15.04;78.66
75153;HTU21D;63734;45.218;36.708;2023-04-03T06:52:25;14.99;78.83
75153;HTU21D;63734;45.218;36.708;2023-04-03T06:55:04;15.13;79.19
75153;HTU21D;63734;45.218;36.708;2023-04-03T06:57:30;15.07;78.01
75153;HTU21D;63734;45.218;36.708;2023-04-03T06:59:56;15.03;78.85
75153;HTU21D;63734;45.218;36.708;2023-04-03T07:02:22;15.15;78.21
75153;HTU21D;63734;45.218;36.708;2023-04-03T07:04:48;14.99;78.64
75153;HTU21D;63734;45.218;36.708;2023-04-03T07:07:14;15.08;78.56
75153;HTU21D;63734;45.218;36.708;2023-04-03T07:09:41;15.30;78.69
75153;HTU21D;63734;45.218;36.708;2023-04-03T07:12:08;15.49;78.06
75153;HTU21D;63734;45.218;36.708;2023-04-03T07:14:34;15.55;77.31
75153;HTU21D;63734;45.218;36.708;2023-04-03T09:57:01;16.14;73.86
75153;HTU21D;63734;45.218;36.708;2023-04-03T09:59:27;16.24;73.84
75153;HTU21D;63734;45.218;36.708;2023-04-03T10:04:42;16.32;73.35
75153;HTU21D;63734;45.218;36.708;2023-04-03T10:10:02;16.31;73.27
75153;HTU21D;63734;45.218;36.708;2023-04-03T10:12:29;16.43;73.39
75153;HTU21D;63734;45.218;36.708;2023-04-03T10:14:57;16.51;72.93
75153;HTU21D;63734;45.218;36.708;2023-04-03T10:17:54;16.48;72.35
75153;HTU21D;63734;45.218;36.708;2023-04-03T10:20:27;16.56;73.02
75153;HTU21D;63734;45.218;36.708;2023-04-03T10:23:05;16.70;72.83
75153;HTU21D;63734;45.218;36.708;2023-04-03T10:25:47;16.85;72.10
75153;HTU21D;63734;45.218;36.708;2023-04-03T10:28:40;16.89;72.26
75153;HTU21D;63734;45.218;36.708;2023-04-03T10:34:30;16.81;71.22
75153;HTU21D;63734;45.218;36.708;2023-04-03T10:42:46;17.09;71.32
75153;HTU21D;63734;45.218;36.708;2023-04-03T10:45:28;17.07;71.44
75153;HTU21D;63734;45.218;36.708;2023-04-03T10:58:33;16.77;70.99
75153;HTU21D;63734;45.218;36.708;2023-04-03T11:01:09;16.69;70.96
75153;HTU21D;63734;45.218;36.708;2023-04-03T11:03:51;16.57;70.42
75153;HTU21D;63734;45.218;36.708;2023-04-03T11:06:21;16.43;71.57
75153;HTU21D;63734;45.218;36.708;2023-04-03T11:11:43;16.45;71.48
75153;HTU21D;63734;45.218;36.708;2023-04-03T11:14:26;16.46;71.70
75153;HTU21D;63734;45.218;36.708;2023-04-03T11:17:01;16.45;71.52
75153;HTU21D;63734;45.218;36.708;2023-04-03T11:19:38;16.45;71.79
75153;HTU21D;63734;45.218;36.708;2023-04-03T11:22:27;16.49;71.27
75153;HTU21D;63734;45.218;36.708;2023-04-03T11:27:50;16.48;71.61
75153;HTU21D;63734;45.218;36.708;2023-04-03T11:30:22;16.44;71.38
75153;HTU21D;63734;45.218;36.708;2023-04-03T11:33:20;16.57;71.65
75153;HTU21D;63734;45.218;36.708;2023-04-03T11:35:50;16.74;71.14
75153;HTU21D;63734;45.218;36.708;2023-04-03T11:38:23;16.76;71.18
75153;HTU21D;63734;45.218;36.708;2023-04-03T11:40:53;16.90;71.31
75153;HTU21D;63734;45.218;36.708;2023-04-03T11:43:24;16.96;70.39
75153;HTU21D;63734;45.218;36.708;2023-04-03T11:46:02;16.86;70.31
75153;HTU21D;63734;45.218;36.708;2023-04-03T11:51:01;16.60;70.00
75153;HTU21D;63734;45.218;36.708;2023-04-03T11:53:36;16.55;70.65
75153;HTU21D;63734;45.218;36.708;2023-04-03T12:04:15;16.62;70.32
75153;HTU21D;63734;45.218;36.708;2023-04-03T12:06:50;16.55;70.94
75153;HTU21D;63734;45.218;36.708;2023-04-03T12:10:15;16.50;70.81
75153;HTU21D;63734;45.218;36.708;2023-04-03T12:14:51;16.41;71.16
75153;HTU21D;63734;45.218;36.708;2023-04-03T12:17:25;16.33;71.11
75153;HTU21D;63734;45.218;36.708;2023-04-03T12:19:52;16.20;71.35
75153;HTU21D;63734;45.218;36.708;2023-04-03T12:22:20;16.17;71.42
75153;HTU21D;63734;45.218;36.708;2023-04-03T12:24:51;16.02;71.64
75153;HTU21D;63734;45.218;36.708;2023-04-03T12:30:13;15.76;72.91
75153;HTU21D;63734;45.218;36.708;2023-04-03T12:41:29;15.70;73.16
75153;HTU21D;63734;45.218;36.708;2023-04-03T12:44:18;15.71;73.32
75153;HTU21D;63734;45.218;36.708;2023-04-03T12:46:50;15.61;73.23
75153;HTU21D;63734;45.218;36.708;2023-04-03T12:51:54;15.41;73.93
75153;HTU21D;63734;45.218;36.708;2023-04-03T12:54:36;15.32;74.06
75153;HTU21D;63734;45.218;36.708;2023-04-03T12:57:29;15.28;74.29
75153;HTU21D;63734;45.218;36.708;2023-04-03T12:59:56;15.18;74.36
75153;HTU21D;63734;45.218;36.708;2023-04-03T13:02:29;15.12;74.76
75153;HTU21D;63734;45.218;36.708;2023-04-03T13:04:58;15.03;75.13
75153;HTU21D;63734;45.218;36.708;2023-04-03T13:07:32;15.03;75.22
75153;HTU21D;63734;45.218;36.708;2023-04-03T13:10:02;15.01;75.05
75153;HTU21D;63734;45.218;36.708;2023-04-03T13:12:29;14.93;75.38
75153;HTU21D;63734;45.218;36.708;2023-04-03T13:14:58;14.86;75.53
75153;HTU21D;63734;45.218;36.708;2023-04-03T13:17:25;14.86;75.95
75153;HTU21D;63734;45.218;36.708;2023-04-03T13:19:53;14.82;75.71
75153;HTU21D;63734;45.218;36.708;2023-04-03T13:24:58;14.48;76.43
75153;HTU21D;63734;45.218;36.708;2023-04-03T13:27:25;14.45;76.89
75153;HTU21D;63734;45.218;36.708;2023-04-03T13:29:54;14.43;76.88
75153;HTU21D;63734;45.218;36.708;2023-04-03T13:32:24;14.49;77.07
75153;HTU21D;63734;45.218;36.708;2023-04-03T13:34:51;14.50;76.90
75153;HTU21D;63734;45.218;36.708;2023-04-03T13:37:29;14.45;77.09
75153;HTU21D;63734;45.218;36.708;2023-04-03T13:42:37;14.36;77.11
75153;HTU21D;63734;45.218;36.708;2023-04-03T13:47:47;14.32;77.44
75153;HTU21D;63734;45.218;36.708;2023-04-03T13:50:21;14.20;77.59
75153;HTU21D;63734;45.218;36.708;2023-04-03T13:53:00;14.11;77.90
75153;HTU21D;63734;45.218;36.708;2023-04-03T13:55:32;14.08;78.11
75153;HTU21D;63734;45.218;36.708;2023-04-03T14:00:48;14.09;78.11
75153;HTU21D;63734;45.218;36.708;2023-04-03T14:06:19;13.94;78.34
75153;HTU21D;63734;45.218;36.708;2023-04-03T14:08:46;13.86;78.55
75153;HTU21D;63734;45.218;36.708;2023-04-03T14:11:18;13.75;78.75
75153;HTU21D;63734;45.218;36.708;2023-04-03T14:13:45;13.67;78.95
75153;HTU21D;63734;45.218;36.708;2023-04-03T14:16:14;13.59;79.20
75153;HTU21D;63734;45.218;36.708;2023-04-03T14:18:43;13.51;79.53
75153;HTU21D;63734;45.218;36.708;2023-04-03T14:21:14;13.45;79.74
75153;HTU21D;63734;45.218;36.708;2023-04-03T14:23:41;13.30;80.30
75153;HTU21D;63734;45.218;36.708;2023-04-03T14:26:28;13.20;80.88
75153;HTU21D;63734;45.218;36.708;2023-04-03T14:28:55;13.09;81.47
75153;HTU21D;63734;45.218;36.708;2023-04-03T14:31:22;13.04;81.78
75153;HTU21D;63734;45.218;36.708;2023-04-03T14:33:48;13.01;82.03
75153;HTU21D;63734;45.218;36.708;2023-04-03T14:36:25;12.94;82.33
75153;HTU21D;63734;45.218;36.708;2023-04-03T14:38:52;12.84;82.62
75153;HTU21D;63734;45.218;36.708;2023-04-03T14:41:20;12.75;82.87
75153;HTU21D;63734;45.218;36.708;2023-04-03T14:43:49;12.71;82.87
75153;HTU21D;63734;45.218;36.708;2023-04-03T14:46:19;12.67;83.35
75153;HTU21D;63734;45.218;36.708;2023-04-03T14:48:46;12.65;83.50
75153;HTU21D;63734;45.218;36.708;2023-04-03T14:51:14;12.53;84.39
75153;HTU21D;63734;45.218;36.708;2023-04-03T14:53:41;12.41;85.09
75153;HTU21D;63734;45.218;36.708;2023-04-03T14:56:24;12.30;85.61
75153;HTU21D;63734;45.218;36.708;2023-04-03T14:58:58;12.22;86.27
75153;HTU21D;63734;45.218;36.708;2023-04-03T15:01:26;12.20;86.51
75153;HTU21D;63734;45.218;36.708;2023-04-03T15:03:52;12.17;86.58
75153;HTU21D;63734;45.218;36.708;2023-04-03T15:06:18;12.15;86.71
75153;HTU21D;63734;45.218;36.708;2023-04-03T15:08:45;12.11;86.85
75153;HTU21D;63734;45.218;36.708;2023-04-03T15:11:13;12.11;86.96
75153;HTU21D;63734;45.218;36.708;2023-04-03T15:13:39;12.10;87.07
75153;HTU21D;63734;45.218;36.708;2023-04-03T15:16:20;12.06;87.05
75153;HTU21D;63734;45.218;36.708;2023-04-03T15:18:48;12.04;87.51
75153;HTU21D;63734;45.218;36.708;2023-04-03T15:21:14;11.93;88.02
75153;HTU21D;63734;45.218;36.708;2023-04-03T15:23:40;11.84;88.74
75153;HTU21D;63734;45.218;36.708;2023-04-03T15:26:07;11.74;89.41
75153;HTU21D;63734;45.218;36.708;2023-04-03T15:28:39;11.67;89.83
75153;HTU21D;63734;45.218;36.708;2023-04-03T15:31:06;11.61;90.28
75153;HTU21D;63734;45.218;36.708;2023-04-03T15:33:33;11.57;90.69
75153;HTU21D;63734;45.218;36.708;2023-04-03T15:35:59;11.51;91.18
75153;HTU21D;63734;45.218;36.708;2023-04-03T15:38:25;11.45;91.31
75153;HTU21D;63734;45.218;36.708;2023-04-03T15:40:51;11.40;91.82
75153;HTU21D;63734;45.218;36.708;2023-04-03T15:43:17;11.36;91.98
75153;HTU21D;63734;45.218;36.708;2023-04-03T15:45:44;11.28;92.14
75153;HTU21D;63734;45.218;36.708;2023-04-03T15:48:11;11.27;92.14
75153;HTU21D;63734;45.218;36.708;2023-04-03T15:50:38;11.26;91.82
75153;HTU21D;63734;45.218;36.708;2023-04-03T15:53:05;11.24;91.99
75153;HTU21D;63734;45.218;36.708;2023-04-03T15:55:33;11.19;92.57
75153;HTU21D;63734;45.218;36.708;2023-04-03T15:58:00;11.13;92.92
75153;HTU21D;63734;45.218;36.708;2023-04-03T16:00:27;11.08;93.36
75153;HTU21D;63734;45.218;36.708;2023-04-03T16:02:58;11.04;93.70
75153;HTU21D;63734;45.218;36.708;2023-04-03T16:05:25;10.96;95.28
75153;HTU21D;63734;45.218;36.708;2023-04-03T16:07:52;10.85;96.11
75153;HTU21D;63734;45.218;36.708;2023-04-03T16:10:19;10.78;96.57
75153;HTU21D;63734;45.218;36.708;2023-04-03T16:12:45;10.69;97.36
75153;HTU21D;63734;45.218;36.708;2023-04-03T16:15:12;10.64;97.58
75153;HTU21D;63734;45.218;36.708;2023-04-03T16:17:39;10.62;97.88
75153;HTU21D;63734;45.218;36.708;2023-04-03T16:20:10;10.58;98.21
75153;HTU21D;63734;45.218;36.708;2023-04-03T16:22:37;10.57;98.36
75153;HTU21D;63734;45.218;36.708;2023-04-03T16:25:05;10.56;98.43
75153;HTU21D;63734;45.218;36.708;2023-04-03T16:27:31;10.54;98.24
75153;HTU21D;63734;45.218;36.708;2023-04-03T16:29:58;10.52;98.77
75153;HTU21D;63734;45.218;36.708;2023-04-03T16:32:27;10.50;99.00
75153;HTU21D;63734;45.218;36.708;2023-04-03T16:34:55;10.49;99.13
75153;HTU21D;63734;45.218;36.708;2023-04-03T16:37:21;10.49;99.67
75153;HTU21D;63734;45.218;36.708;2023-04-03T16:39:47;10.46;99.87
75153;HTU21D;63734;45.218;36.708;2023-04-03T16:42:12;10.48;100.28
75153;HTU21D;63734;45.218;36.708;2023-04-03T16:44:38;10.48;100.16
75153;HTU21D;63734;45.218;36.708;2023-04-03T16:47:06;10.50;100.06
75153;HTU21D;63734;45.218;36.708;2023-04-03T16:49:34;10.50;100.25
75153;HTU21D;63734;45.218;36.708;2023-04-03T16:52:01;10.51;100.90
75153;HTU21D;63734;45.218;36.708;2023-04-03T16:54:29;10.50;101.48
75153;HTU21D;63734;45.218;36.708;2023-04-03T16:56:55;10.50;101.92
75153;HTU21D;63734;45.218;36.708;2023-04-03T16:59:22;10.50;102.32
75153;HTU21D;63734;45.218;36.708;2023-04-03T17:01:48;10.51;102.11
75153;HTU21D;63734;45.218;36.708;2023-04-03T17:04:14;10.54;101.88
75153;HTU21D;63734;45.218;36.708;2023-04-03T17:06:41;10.57;101.61
75153;HTU21D;63734;45.218;36.708;2023-04-03T17:09:07;10.57;101.48
75153;HTU21D;63734;45.218;36.708;2023-04-03T17:11:35;10.58;101.31
75153;HTU21D;63734;45.218;36.708;2023-04-03T17:14:02;10.59;101.44
75153;HTU21D;63734;45.218;36.708;2023-04-03T17:16:29;10.62;101.51
75153;HTU21D;63734;45.218;36.708;2023-04-03T17:18:56;10.64;101.50
75153;HTU21D;63734;45.218;36.708;2023-04-03T17:21:22;10.64;101.30
75153;HTU21D;63734;45.218;36.708;2023-04-03T17:23:57;10.69;101.13
75153;HTU21D;63734;45.218;36.708;2023-04-03T17:26:25;10.70;101.30
75153;HTU21D;63734;45.218;36.708;2023-04-03T17:28:52;10.72;101.16
75153;HTU21D;63734;45.218;36.708;2023-04-03T17:31:19;10.73;100.88
75153;HTU21D;63734;45.218;36.708;2023-04-03T17:33:45;10.75;100.74
75153;HTU21D;63734;45.218;36.708;2023-04-03T17:36:11;10.79;100.67
75153;HTU21D;63734;45.218;36.708;2023-04-03T17:38:37;10.80;100.55
75153;HTU21D;63734;45.218;36.708;2023-04-03T17:41:06;10.82;100.58
75153;HTU21D;63734;45.218;36.708;2023-04-03T17:43:33;10.81;100.81
75153;HTU21D;63734;45.218;36.708;2023-04-03T17:46:06;10.82;100.82
75153;HTU21D;63734;45.218;36.708;2023-04-03T17:48:35;10.82;100.62
75153;HTU21D;63734;45.218;36.708;2023-04-03T17:51:13;10.83;100.52
75153;HTU21D;63734;45.218;36.708;2023-04-03T17:53:39;10.84;100.50
75153;HTU21D;63734;45.218;36.708;2023-04-03T17:56:14;10.84;100.54
75153;HTU21D;63734;45.218;36.708;2023-04-03T17:58:41;10.83;100.90
75153;HTU21D;63734;45.218;36.708;2023-04-03T18:01:38;10.85;100.64
75153;HTU21D;63734;45.218;36.708;2023-04-03T18:04:05;10.86;100.61
75153;HTU21D;63734;45.218;36.708;2023-04-03T18:06:43;10.86;100.80
75153;HTU21D;63734;45.218;36.708;2023-04-03T18:09:14;10.86;101.03
75153;HTU21D;63734;45.218;36.708;2023-04-03T18:11:42;10.87;101.20
75153;HTU21D;63734;45.218;36.708;2023-04-03T18:14:09;10.88;101.07
75153;HTU21D;63734;45.218;36.708;2023-04-03T18:16:35;10.87;101.07
75153;HTU21D;63734;45.218;36.708;2023-04-03T18:19:02;10.87;101.23
75153;HTU21D;63734;45.218;36.708;2023-04-03T18:21:29;10.86;101.10
75153;HTU21D;63734;45.218;36.708;2023-04-03T18:23:55;10.86;101.09
75153;HTU21D;63734;45.218;36.708;2023-04-03T18:26:24;10.87;100.99
75153;HTU21D;63734;45.218;36.708;2023-04-03T18:29:02;10.88;100.95
75153;HTU21D;63734;45.218;36.708;2023-04-03T18:31:31;10.88;100.96
75153;HTU21D;63734;45.218;36.708;2023-04-03T18:34:00;10.86;101.02
75153;HTU21D;63734;45.218;36.708;2023-04-03T18:36:27;10.87;101.06
75153;HTU21D;63734;45.218;36.708;2023-04-03T18:38:53;10.86;101.34
75153;HTU21D;63734;45.218;36.708;2023-04-03T18:41:22;10.84;101.34
75153;HTU21D;63734;45.218;36.708;2023-04-03T18:43:49;10.83;101.26
75153;HTU21D;63734;45.218;36.708;2023-04-03T18:46:15;10.85;101.25
75153;HTU21D;63734;45.218;36.708;2023-04-03T18:48:41;10.86;101.37
75153;HTU21D;63734;45.218;36.708;2023-04-03T18:51:11;10.85;101.35
75153;HTU21D;63734;45.218;36.708;2023-04-03T18:53:38;10.85;101.35
75153;HTU21D;63734;45.218;36.708;2023-04-03T18:56:04;10.87;101.29
75153;HTU21D;63734;45.218;36.708;2023-04-03T18:58:30;10.89;101.24
75153;HTU21D;63734;45.218;36.708;2023-04-03T19:00:57;10.89;101.16
75153;HTU21D;63734;45.218;36.708;2023-04-03T19:03:23;10.92;101.32
75153;HTU21D;63734;45.218;36.708;2023-04-03T19:05:49;10.93;101.33
75153;HTU21D;63734;45.218;36.708;2023-04-03T19:08:15;10.92;101.48
75153;HTU21D;63734;45.218;36.708;2023-04-03T19:10:42;10.92;101.46
75153;HTU21D;63734;45.218;36.708;2023-04-03T19:13:08;10.93;101.54
75153;HTU21D;63734;45.218;36.708;2023-04-03T19:15:34;10.94;101.50
75153;HTU21D;63734;45.218;36.708;2023-04-03T19:18:00;10.94;101.62
75153;HTU21D;63734;45.218;36.708;2023-04-03T19:20:26;10.92;101.51
75153;HTU21D;63734;45.218;36.708;2023-04-03T19:22:52;10.92;101.60
75153;HTU21D;63734;45.218;36.708;2023-04-03T19:25:20;10.92;101.54